Dati Storici

Data ora Umidita' aria (%) Temperatura aria (°C) Rad globale (W/m²) Gonioanemometro (°) Tacoanemometro (m/s) Pioggia (mm)
07-11-2012 11:30 55.6 % 11.998 452.684 13.809 0.85 0
07-11-2012 11:20 55.8 % 11.523 442.563 358.71 1.221 0
07-11-2012 11:10 57.4 % 11.862 429.359 3.041 0.335 0
07-11-2012 11:00 56.6 % 10.838 416.695 19.547 1.752 0
07-11-2012 10:50 58.5 % 11.234 401.516 269.459 0.98 0
07-11-2012 10:40 59 % 10.576 348.438 11.618 2.315 0
07-11-2012 10:30 59.2 % 10.662 404.658 46.548 1.283 0
07-11-2012 10:20 60.2 % 9.911 72.755 39.959 2.827 0
07-11-2012 10:10 61.3 % 9.614 332.452 18.341 2.18 0
07-11-2012 10:00 61.2 % 9.285 307.737 338.632 2.223 0
07-11-2012 09:50 61.8 % 9.271 281.112 6.992 1.869 0
07-11-2012 09:40 62.6 % 9.057 255.484 36.97 2.841 0
07-11-2012 09:30 64.5 % 8.811 229.075 15.081 1.664 0
07-11-2012 09:20 66 % 8.525 203.033 11.824 0.975 0
07-11-2012 09:10 67.1 % 8.301 175.988 32.975 1.444 0
07-11-2012 09:00 68.9 % 7.977 148.754 1.775 0.727 0
07-11-2012 08:50 69.7 % 7.834 122.631 67.27 1.832 0
07-11-2012 08:40 71.5 % 7.567 95.441 344.389 1.349 0
07-11-2012 08:30 74.2 % 7.254 69.359 332.081 0.317 0
07-11-2012 08:20 76 % 6.809 46.683 296.8 0.906 0

I dati sono presentati in modo automatico a scopo informativo. In seguito a verifica i dati possono subire modifiche o essere invalidati e non riportati negli archivi definitivi.